Latest Coastal Weather Observations for Strahan

IDT60701

Issued at 8:32 am EST Tuesday 23 July 2019 (issued every 10 minutes, with the page automatically refreshed every 10 minutes)

About coastal observations | Map of coastal stations | Coastal observations for TAS | Marine services | Other Formats
Station Details ID: 097072 Name: STRAHAN AERODROME Lat: -42.16 Lon: 145.29 Height: 21.0 m
Data from the previous 72 hours. | See also: Recent months at Strahan
Date/Time
EST
Wind Sea
Height
m
Swell Vis
km
Cloud Weather Temp
°C
Press
hPa
Rain since
9am
mm
Dir  Spd
kts
Gust
kts
Height
m
Period
s
Dir
23/08:30am N 11 15 - - - - 5 Partly cloudy - 7.3 1000.9 -
23/08:00am N 12 15 - - - - 10 Partly cloudy - 7.4 1000.3 -
23/07:30am N 12 17 - - - - 8 Partly cloudy - 7.8 1000.2 -
23/07:00am NNE 11 16 - - - - 10 Partly cloudy - 7.5 999.2 -
23/06:30am NNE 11 15 - - - - 10 Partly cloudy - 7.4 999.3 -
23/06:00am NNE 9 13 - - - - 10 Mostly cloudy - 7.3 999.5 -
23/05:30am N 7 9 - - - - 10 Partly cloudy - 7.4 1000.1 -
23/05:00am NNE 7 10 - - - - 10 Partly cloudy - 7.5 1000.3 -
23/04:30am NNE 8 12 - - - - 10 Partly cloudy - 7.7 1000.4 -
23/04:00am N 9 12 - - - - 10 Partly cloudy - 7.9 1000.5 -
23/03:30am N 12 17 - - - - 10 Partly cloudy - 8.3 1000.6 -
23/03:00am N 11 15 - - - - - Cloudy - 9.0 1000.7 4.0
23/02:30am NNE 8 11 - - - - - Partly cloudy - 8.8 1000.9 -
23/02:00am N 11 15 - - - - - Partly cloudy - 8.7 1001.1 -
23/01:30am N 10 14 - - - - - Partly cloudy - 8.7 1001.2 -
23/01:00am N 12 16 - - - - - Partly cloudy - 8.6 1001.3 -
23/12:30am N 11 17 - - - - - Partly cloudy - 8.7 1001.3 -
23/12:18am N 11 17 - - - - - Partly cloudy - 8.6 1001.3 -
23/12:01am N 11 16 - - - - - Partly cloudy - 8.6 1001.9 -
23/12:00am N 11 16 - - - - - Cloudy Rain 8.6 1001.9 -
 
Date/Time
EST
Wind Sea
Height
m
Swell Vis
km
Cloud Weather Temp
°C
Press
hPa
Rain since
9am
mm
Dir  Spd
kts
Gust
kts
Height
m
Period
s
Dir
22/11:30pm N 11 15 - - - - - Partly cloudy - 8.8 1001.8 -
22/11:00pm N 17 27 - - - - - Partly cloudy - 9.2 1002.1 -
22/10:35pm N 16 27 - - - - - Partly cloudy - 9.0 1002.1 -
22/10:30pm N 16 23 - - - - - Partly cloudy - 8.7 1002.1 -
22/10:00pm N 18 26 - - - - - Partly cloudy - 8.7 1002.2 -
22/09:30pm N 15 24 - - - - - Partly cloudy - 9.0 1002.2 -
22/09:00pm NNW 20 27 - - - - - Cloudy Rain 9.4 1002.3 4.0
22/08:46pm NW 22 32 - - - - - Partly cloudy - 9.4 1002.2 -
22/08:43pm NW 23 32 - - - - - Partly cloudy - 9.4 1002.3 -
22/08:30pm NW 24 35 - - - - 5 Partly cloudy - 9.4 1002.0 -
22/08:22pm NW 23 33 - - - - 3 Partly cloudy - 10.0 1001.9 -
22/08:17pm NW 25 33 - - - - 3 Partly cloudy - 9.9 1001.6 -
22/08:04pm NNW 25 35 - - - - 5 Partly cloudy - 10.0 1001.1 -
22/08:02pm N 26 35 - - - - 10 Partly cloudy - 10.9 1000.8 -
22/08:00pm N 25 35 - - - - 10 Partly cloudy - 12.7 1000.0 -
22/07:33pm N 22 35 - - - - 10 Cloudy - 14.1 998.5 -
22/07:30pm N 21 30 - - - - 10 Cloudy - 14.1 998.5 -
22/07:00pm N 21 34 - - - - 10 Partly cloudy - 14.0 998.7 -
22/06:30pm N 20 30 - - - - 10 Partly cloudy - 13.6 998.9 -
22/06:00pm N 20 30 - - - - 10 Mostly cloudy - 13.5 999.1 -
22/05:30pm N 23 33 - - - - 10 Cloudy - 13.5 999.2 -
22/05:02pm N 21 31 - - - - 10 - - 13.6 999.4 -
22/05:00pm N 23 31 - - - - 10 Partly cloudy - 13.7 999.5 -
22/04:30pm N 23 34 - - - - 10 Partly cloudy - 13.1 1000.1 -
22/04:00pm N 21 32 - - - - 10 Partly cloudy - 13.9 1000.2 -
22/03:48pm N 21 31 - - - - 10 Partly cloudy - 13.7 1000.4 -
22/03:30pm N 22 31 - - - - 10 Partly cloudy - 13.7 1000.7 -
22/03:00pm N 22 32 - - - - - Cloudy - 14.0 1000.8 -
22/02:48pm N 20 30 - - - - - Partly cloudy - 14.3 1000.7 -
22/02:30pm N 19 27 - - - - - Partly cloudy - 14.4 1000.4 -
22/02:00pm N 20 31 - - - - - Cloudy - 14.9 1000.5 -
22/01:33pm N 22 33 - - - - - Partly cloudy - 14.4 1001.1 -
22/01:30pm N 21 30 - - - - - Partly cloudy - 14.5 1001.1 -
22/01:02pm N 21 31 - - - - - Partly cloudy - 14.3 1001.7 -
22/01:00pm N 22 31 - - - - - Partly cloudy - 14.3 1001.7 -
22/12:30pm N 20 31 - - - - - Partly cloudy - 14.4 1002.3 0.0
22/12:17pm N 22 33 - - - - - Partly cloudy - 14.6 1002.6 0.0
22/12:00pm N 23 30 - - - - - Cloudy - 14.4 1002.8 0.0
22/11:34am N 19 29 - - - - - Partly cloudy - 14.0 1003.6 0.0
22/11:30am N 20 29 - - - - - Partly cloudy - 14.1 1003.7 0.0
22/11:00am N 21 34 - - - - - Partly cloudy - 13.6 1004.3 0.0
22/10:38am N 17 27 - - - - - Partly cloudy - 13.5 1004.5 0.0
22/10:30am N 22 29 - - - - - Cloudy - 13.5 1004.3 0.0
22/10:10am N 19 29 - - - - - Partly cloudy - 13.2 1004.5 0.0
22/10:00am N 19 26 - - - - - Partly cloudy - 13.2 1004.6 0.0
22/09:30am N 19 27 - - - - - Partly cloudy - 12.5 1004.7 0.0
22/09:03am N 18 28 - - - - - Partly cloudy - 12.4 1005.0 0.0
22/09:00am N 19 28 - - - - - Cloudy - 12.4 1004.9 4.0
22/08:30am N 16 22 - - - - - Partly cloudy - 11.9 1005.1 4.0
22/08:00am N 17 23 - - - - - Partly cloudy - 11.8 1005.3 4.0
22/07:30am N 17 25 - - - - - Partly cloudy - 11.5 1005.2 4.0
22/07:00am N 16 23 - - - - - Partly cloudy - 11.4 1005.1 4.0
22/06:30am N 18 27 - - - - - Partly cloudy - 11.6 1005.3 4.0
22/06:26am N 17 27 - - - - - Partly cloudy - 11.5 1005.2 4.0
22/06:00am N 18 25 - - - - - Cloudy - 11.6 1005.1 4.0
22/05:30am N 17 24 - - - - - Partly cloudy - 11.2 1005.2 4.0
22/05:00am N 18 27 - - - - - Partly cloudy - 11.3 1005.5 4.0
22/04:30am N 16 23 - - - - - Partly cloudy - 11.2 1005.6 4.0
22/04:00am N 17 24 - - - - - Partly cloudy - 11.1 1005.7 4.0
22/03:34am N 15 25 - - - - - Partly cloudy - 10.9 1005.9 4.0
22/03:30am N 15 22 - - - - - Partly cloudy - 11.0 1005.9 4.0
22/03:02am N 16 27 - - - - - Partly cloudy - 10.8 1006.0 4.0
22/03:00am N 16 23 - - - - - Cloudy - 10.7 1006.0 4.0
22/02:30am N 15 21 - - - - - Partly cloudy - 10.5 1006.1 4.0
22/02:00am N 14 21 - - - - - Cloudy - 10.4 1006.2 4.0
22/01:30am N 13 19 - - - - - Cloudy - 10.1 1006.3 4.0
22/01:00am N 14 18 - - - - - Cloudy - 10.1 1006.5 4.0
22/12:30am N 13 18 - - - - - Partly cloudy - 9.9 1006.6 4.0
22/12:00am N 10 13 - - - - - Cloudy Recent precip. 9.5 1006.9 4.0
 
Date/Time
EST
Wind Sea
Height
m
Swell Vis
km
Cloud Weather Temp
°C
Press
hPa
Rain since
9am
mm
Dir  Spd
kts
Gust
kts
Height
m
Period
s
Dir
21/11:30pm N 12 16 - - - - - Partly cloudy - 9.4 1007.1 4.0
21/11:00pm N 10 14 - - - - - Partly cloudy - 9.4 1007.3 3.6
21/10:30pm N 10 14 - - - - - Partly cloudy - 9.4 1007.4 3.6
21/10:00pm N 11 17 - - - - - Partly cloudy - 9.2 1007.6 3.6
21/09:30pm N 11 15 - - - - - Partly cloudy - 9.4 1007.6 3.6
21/09:00pm N 11 16 - - - - - Cloudy - 9.6 1007.3 3.4
21/08:30pm N 10 13 - - - - - Partly cloudy - 9.7 1007.4 3.4
21/08:00pm NW 17 24 - - - - - Partly cloudy - 10.8 1007.3 3.4
21/07:30pm N 12 16 - - - - - Partly cloudy - 9.2 1007.2 3.4
21/07:00pm N 11 14 - - - - 10 Partly cloudy - 9.3 1007.1 3.2
21/06:39pm NNW 15 25 - - - - 10 Partly cloudy - 10.1 1006.9 3.2
21/06:30pm NNW 15 22 - - - - 10 Partly cloudy - 10.1 1006.8 3.2
21/06:00pm NW 18 24 - - - - 10 Mostly cloudy Rain 9.4 1006.6 3.2
21/05:53pm NW 18 25 - - - - 10 Partly cloudy - 9.4 1006.5 3.2
21/05:37pm NW 21 29 - - - - 5 Partly cloudy - 9.7 1006.3 3.2
21/05:32pm NW 18 28 - - - - 10 Partly cloudy - 10.5 1006.2 2.6
21/05:30pm NW 17 24 - - - - 10 Partly cloudy - 10.5 1006.1 2.6
21/05:00pm NW 13 19 - - - - 10 Partly cloudy - 9.3 1006.1 2.6
21/04:39pm NW 15 25 - - - - 9 Partly cloudy - 9.9 1006.0 2.6
21/04:30pm NW 16 22 - - - - 10 Partly cloudy - 11.0 1005.7 2.4
21/04:00pm NW 16 22 - - - - 10 Partly cloudy - 10.8 1005.5 2.4
21/03:30pm NW 17 25 - - - - 10 Partly cloudy - 10.7 1005.3 2.4
21/03:17pm NW 16 26 - - - - 10 Partly cloudy - 11.7 1005.2 2.4
21/03:00pm NW 18 25 - - - - 10 Cloudy - 11.4 1005.1 2.4
21/02:30pm NW 20 30 - - - - 10 Partly cloudy - 11.1 1004.6 2.4
21/02:20pm WNW 19 29 - - - - 10 Partly cloudy - 11.5 1004.3 2.4
21/02:00pm NW 20 27 - - - - 10 Partly cloudy - 10.8 1004.0 2.4
21/01:36pm WNW 20 31 - - - - 10 Partly cloudy - 10.5 1003.7 2.2
21/01:30pm NW 20 28 - - - - 10 Partly cloudy - 10.6 1003.5 2.2
21/01:00pm NW 23 33 - - - - 10 Partly cloudy - 10.7 1003.4 2.2
21/12:30pm NW 22 33 - - - - 10 Partly cloudy - 12.8 1003.0 2.2
21/12:00pm NW 25 35 - - - - 10 Cloudy Rain 10.3 1003.0 2.2
21/11:34am NW 24 34 - - - - 10 Partly cloudy - 11.0 1003.1 2.2
21/11:30am NW 25 34 - - - - 10 Partly cloudy - 10.7 1003.1 2.2
21/11:00am NW 23 33 - - - - 6 Partly cloudy - 10.4 1002.8 2.0
21/10:49am NW 19 34 - - - - 10 Partly cloudy - 10.6 1002.6 2.0
21/10:47am NW 18 24 - - - - 10 Partly cloudy - 10.7 1002.7 2.0
21/10:30am NW 24 41 - - - - 3 Partly cloudy - 8.9 1002.6 2.0
21/10:27am NW 23 41 - - - - 4 Partly cloudy - 8.7 1002.7 1.8
21/10:25am NW 21 41 - - - - 10 Partly cloudy - 10.0 1002.7 1.2
21/10:23am NW 20 27 - - - - 10 Partly cloudy - 10.6 1002.4 0.6
21/10:04am NW 28 38 - - - - 5 Partly cloudy - 9.9 1002.3 0.4
21/10:00am NW 27 38 - - - - 10 Partly cloudy - 10.7 1002.2 0.0
21/09:30am NW 25 35 - - - - 10 Partly cloudy - 10.9 1001.3 0.0
21/09:08am NW 26 39 - - - - 10 Partly cloudy - 10.8 1000.7 0.0
21/09:00am NW 26 37 - - - - 9 Cloudy Showers 11.0 1000.4 5.8
21/08:48am NNW 22 35 - - - - 5 Partly cloudy - 10.9 1000.2 5.8
21/08:47am NNW 21 35 - - - - 8 Partly cloudy - 10.9 1000.2 5.6
21/08:30am NNW 21 33 - - - - 2 Partly cloudy - 10.7 999.9 5.0
21/08:28am NNW 21 33 - - - - 2 Partly cloudy - 10.5 999.9 5.0
21/08:21am NNW 21 29 - - - - 5 Partly cloudy - 10.8 999.6 3.8
21/08:00am N 18 27 - - - - 10 Partly cloudy - 11.0 999.1 2.4
21/07:30am N 17 27 - - - - 10 Partly cloudy - 10.6 998.6 2.2
21/07:15am NNE 15 25 - - - - 10 Partly cloudy - 10.5 998.7 2.2
21/07:00am NNE 15 20 - - - - 10 Partly cloudy - 10.6 998.5 2.0
21/06:49am NNE 16 26 - - - - 10 Cloudy - 10.8 998.6 1.4
21/06:30am N 15 24 - - - - 10 Partly cloudy - 11.1 998.8 0.6
21/06:00am N 18 28 - - - - 10 Cloudy Showers 13.1 998.9 0.0
21/05:30am N 15 26 - - - - 10 Partly cloudy - 13.0 999.5 0.0
21/05:15am N 16 26 - - - - 10 Partly cloudy - 13.2 999.7 0.0
21/05:00am N 18 25 - - - - 10 Partly cloudy - 13.1 999.9 0.0
21/04:32am NNE 17 27 - - - - 10 Partly cloudy - 13.2 1000.0 0.0
21/04:30am NNE 18 27 - - - - 10 Partly cloudy - 13.2 1000.1 0.0
21/04:00am NNE 16 25 - - - - 10 Cloudy - 12.9 1000.8 0.0
21/03:30am NNE 15 24 - - - - 10 Partly cloudy - 12.7 1001.6 0.0
21/03:00am NNE 17 29 - - - - 10 Partly cloudy - 12.5 1002.7 0.0
21/02:54am NNE 16 26 - - - - 10 - - 12.4 1002.7 0.0
21/02:30am NNE 16 25 - - - - 10 - - 12.5 1003.0 0.0
21/02:17am NNE 15 25 - - - - 10 - - 12.2 1003.1 0.0
21/02:00am NNE 14 22 - - - - 10 - - 12.4 1003.5 0.0
21/01:45am NNE 15 25 - - - - 10 - - 12.6 1003.8 0.0
21/01:30am NNE 14 20 - - - - 10 - - 12.3 1004.0 0.0
21/01:00am NNE 14 22 - - - - 10 - - 12.1 1004.7 0.0
21/12:30am NNE 14 22 - - - - 10 - - 12.1 1005.4 0.0
21/12:07am NNE 16 28 - - - - 10 - - 12.3 1005.9 0.0
21/12:00am NNE 16 23 - - - - 10 - - 12.3 1006.1 0.0
 
Date/Time
EST
Wind Sea
Height
m
Swell Vis
km
Cloud Weather Temp
°C
Press
hPa
Rain since
9am
mm
Dir  Spd
kts
Gust
kts
Height
m
Period
s
Dir
20/11:30pm NNE 15 25 - - - - 10 - - 12.1 1006.6 0.0
20/11:25pm NNE 15 25 - - - - 10 - - 12.1 1006.6 0.0
20/11:00pm NNE 17 25 - - - - 10 - - 12.2 1006.9 0.0
20/10:38pm NNE 16 26 - - - - 10 - - 12.0 1007.1 0.0
20/10:30pm NNE 15 21 - - - - 10 - - 12.0 1007.1 0.0
20/10:01pm N 16 26 - - - - 10 - - 11.8 1007.6 0.0
20/10:00pm N 17 26 - - - - 10 - - 11.8 1007.6 0.0
20/09:30pm N 16 23 - - - - 10 - - 11.9 1008.1 0.0
20/09:00pm N 16 28 - - - - 10 - - 11.9 1008.1 0.0
20/08:30pm N 17 27 - - - - 10 - - 11.9 1008.1 0.0
20/08:25pm N 17 27 - - - - 10 - - 12.0 1008.1 0.0
20/08:00pm N 17 23 - - - - 10 - - 11.9 1008.3 0.0
20/07:47pm N 17 27 - - - - 10 - - 11.9 1008.3 0.0
20/07:30pm N 16 24 - - - - 10 - - 12.1 1008.2 0.0
20/07:04pm N 16 26 - - - - 10 - - 12.4 1008.0 0.0
20/07:00pm N 15 22 - - - - 10 - - 12.1 1008.0 0.0
20/06:40pm NNE 15 25 - - - - 10 - - 12.2 1007.9 0.0
20/06:30pm NNE 15 24 - - - - 10 - - 12.3 1007.9 0.0
20/06:00pm NNE 14 24 - - - - 10 - - 12.3 1008.0 0.0
20/05:30pm NNE 13 20 - - - - 10 - - 12.7 1008.1 0.0
20/05:00pm NNE 10 15 - - - - 10 - - 12.7 1008.2 0.0
20/04:30pm N 11 16 - - - - 10 Partly cloudy - 13.4 1008.5 0.0
20/04:00pm N 12 15 - - - - 10 - - 13.7 1008.8 0.0
20/03:30pm NNE 12 18 - - - - 10 Partly cloudy - 14.4 1009.1 0.0
20/03:00pm N 13 19 - - - - 10 Partly cloudy - 15.1 1009.2 0.0
20/02:30pm N 15 20 - - - - 10 - - 15.1 1009.5 0.0
20/02:00pm N 16 22 - - - - 10 Partly cloudy - 16.1 1010.0 0.0
20/01:30pm N 15 21 - - - - 10 - - 15.9 1010.4 0.0
20/01:00pm N 16 23 - - - - 10 - - 15.4 1010.7 0.0
20/12:30pm N 14 20 - - - - 10 - - 15.6 1011.4 0.0
20/12:00pm N 13 18 - - - - 10 Mostly clear - 14.9 1011.9 0.0
20/11:30am N 12 21 - - - - 10 - - 14.0 1012.4 0.0
20/11:00am N 13 19 - - - - 10 Partly cloudy - 13.0 1012.9 0.0
20/10:30am N 13 20 - - - - 10 Partly cloudy - 12.3 1013.2 0.0
20/10:00am N 11 16 - - - - 10 Partly cloudy - 11.5 1013.4 0.0
20/09:30am N 11 16 - - - - 10 Partly cloudy - 11.0 1013.6 0.0
20/09:00am N 12 20 - - - - 10 Cloudy - 10.8 1013.6 4.4

Other formats

Comma delimited format used in spreadsheet applications
http://www.bom.gov.au/fwo/IDT60701/IDT60701.94956.axf

JavaScript Object Notation format (JSON) in row-major order
http://www.bom.gov.au/fwo/IDT60701/IDT60701.94956.json

Data quality

Most of these data are generated automatically and are frequently updated. Quality checks on data are not normally performed. It is possible for incorrect values to appear. Refer to information at About Latest Weather Observations and please check the disclaimer before using these data.